createdAt,value
2018-04-09T00:01:32.347Z,15.20
2018-04-09T00:03:59.867Z,15.15
2018-04-09T00:06:27.613Z,15.06
2018-04-09T00:08:55.143Z,15.04
2018-04-09T00:11:22.913Z,14.98
2018-04-09T00:13:50.520Z,14.95
2018-04-09T00:16:18.043Z,14.91
2018-04-09T00:18:46.090Z,14.90
2018-04-09T00:21:13.946Z,14.88
2018-04-09T00:23:41.745Z,14.84
2018-04-09T00:26:09.330Z,14.82
2018-04-09T00:28:36.881Z,14.78
2018-04-09T00:31:04.586Z,14.75
2018-04-09T00:33:32.108Z,14.75
2018-04-09T00:35:59.636Z,14.65
2018-04-09T00:38:27.174Z,14.72
2018-04-09T00:40:54.699Z,14.66
2018-04-09T00:43:22.551Z,14.62
2018-04-09T00:45:50.070Z,14.57
2018-04-09T00:48:17.596Z,14.53
2018-04-09T00:50:45.153Z,14.53
2018-04-09T00:53:13.651Z,14.52
2018-04-09T00:55:41.493Z,14.45
2018-04-09T00:58:09.028Z,14.48
2018-04-09T01:00:36.559Z,14.48
2018-04-09T01:03:04.107Z,14.36
2018-04-09T01:05:31.706Z,14.28
2018-04-09T01:07:59.349Z,14.37
2018-04-09T01:10:26.870Z,14.33
2018-04-09T01:12:54.387Z,14.37
2018-04-09T01:15:21.932Z,14.35
2018-04-09T01:17:49.528Z,14.29
2018-04-09T01:20:17.190Z,14.27
2018-04-09T01:22:44.706Z,14.23
2018-04-09T01:25:12.237Z,14.22
2018-04-09T01:27:40.700Z,14.20
2018-04-09T01:30:08.217Z,14.13
2018-04-09T01:32:35.769Z,14.16
2018-04-09T01:35:03.352Z,14.02
2018-04-09T01:37:30.968Z,14.06
2018-04-09T01:39:58.528Z,14.02
2018-04-09T01:42:27.495Z,13.99
2018-04-09T01:44:55.245Z,13.77
2018-04-09T01:47:22.757Z,13.77
2018-04-09T01:49:50.275Z,13.77
2018-04-09T01:52:17.829Z,13.75
2018-04-09T01:54:45.350Z,13.68
2018-04-09T01:57:12.901Z,13.72
2018-04-09T01:59:40.423Z,13.70
2018-04-09T02:02:07.946Z,13.74
2018-04-09T02:04:35.501Z,13.71
2018-04-09T02:07:03.021Z,13.73
2018-04-09T02:09:30.735Z,13.72
2018-04-09T02:11:58.263Z,13.74
2018-04-09T02:14:25.823Z,13.77
2018-04-09T02:16:53.385Z,13.75
2018-04-09T02:19:20.910Z,13.73
2018-04-09T02:21:48.478Z,13.75
2018-04-09T02:24:16.012Z,13.73
2018-04-09T02:26:44.339Z,13.50
2018-04-09T02:29:11.911Z,13.54
2018-04-09T02:31:39.431Z,13.51
2018-04-09T02:34:06.973Z,13.51
2018-04-09T02:36:34.485Z,13.51
2018-04-09T02:39:02.010Z,13.45
2018-04-09T02:41:29.570Z,13.46
2018-04-09T02:43:57.084Z,13.38
2018-04-09T02:46:24.889Z,13.41
2018-04-09T02:48:52.410Z,13.36
2018-04-09T02:51:19.937Z,13.46
2018-04-09T02:53:47.486Z,13.49
2018-04-09T02:56:15.099Z,13.50
2018-04-09T02:58:42.782Z,13.48
2018-04-09T03:01:10.307Z,13.48
2018-04-09T03:03:37.828Z,13.49
2018-04-09T03:06:05.383Z,13.45
2018-04-09T03:08:32.914Z,13.46
2018-04-09T03:11:00.474Z,13.36
2018-04-09T03:13:27.991Z,13.36
2018-04-09T03:15:55.507Z,13.36
2018-04-09T03:18:23.055Z,13.41
2018-04-09T03:20:50.579Z,13.28
2018-04-09T03:23:18.391Z,13.23
2018-04-09T03:25:45.905Z,13.02
2018-04-09T03:28:13.426Z,12.92
2018-04-09T03:30:41.094Z,12.93
2018-04-09T03:33:09.102Z,13.03
2018-04-09T03:35:36.741Z,12.94
2018-04-09T03:38:04.267Z,12.92
2018-04-09T03:40:31.795Z,13.00
2018-04-09T03:42:59.431Z,13.00
2018-04-09T03:45:27.430Z,12.98
2018-04-09T03:47:55.166Z,12.92
2018-04-09T03:50:22.708Z,12.80
2018-04-09T03:52:50.221Z,12.75
2018-04-09T03:55:17.778Z,12.83
2018-04-09T03:57:45.336Z,12.73
2018-04-09T04:00:12.897Z,12.86
2018-04-09T04:02:40.413Z,12.75
2018-04-09T04:05:07.934Z,12.77
2018-04-09T04:07:35.478Z,12.74
2018-04-09T04:10:03.002Z,12.85
2018-04-09T04:12:30.747Z,12.80
2018-04-09T04:14:58.265Z,12.84
2018-04-09T04:17:37.859Z,12.88
2018-04-09T04:23:12.802Z,12.76
2018-04-09T04:25:40.325Z,12.77
2018-04-09T04:28:07.865Z,12.90
2018-04-09T04:30:35.427Z,12.86
2018-04-09T04:33:03.314Z,12.88
2018-04-09T04:35:31.325Z,12.91
2018-04-09T04:37:58.857Z,12.80
2018-04-09T04:40:26.404Z,12.89
2018-04-09T04:42:53.966Z,12.85
2018-04-09T04:45:21.492Z,12.74
2018-04-09T04:47:49.189Z,12.73
2018-04-09T04:50:16.709Z,12.85
2018-04-09T04:52:44.232Z,12.74
2018-04-09T04:55:11.795Z,12.80
2018-04-09T04:57:39.324Z,12.67
2018-04-09T05:00:07.009Z,12.56
2018-04-09T05:02:34.534Z,12.40
2018-04-09T05:05:02.064Z,12.29
2018-04-09T05:07:29.614Z,12.28
2018-04-09T05:09:57.170Z,12.32
2018-04-09T05:12:24.733Z,12.37
2018-04-09T05:14:52.267Z,12.23
2018-04-09T05:17:19.786Z,12.30
2018-04-09T05:19:47.334Z,12.40
2018-04-09T05:22:14.860Z,12.53
2018-04-09T05:24:42.414Z,12.48
2018-04-09T05:27:09.931Z,12.46
2018-04-09T05:29:37.453Z,12.54
2018-04-09T05:32:05.053Z,12.66
2018-04-09T05:34:32.549Z,12.67
2018-04-09T05:37:00.302Z,12.84
2018-04-09T05:39:27.830Z,12.93
2018-04-09T05:41:55.354Z,13.05
2018-04-09T05:44:22.919Z,13.22
2018-04-09T05:46:50.453Z,13.06
2018-04-09T05:49:18.030Z,13.14
2018-04-09T05:51:45.575Z,13.22
2018-04-09T05:54:13.096Z,13.11
2018-04-09T05:56:41.208Z,13.28
2018-04-09T05:59:08.728Z,13.16
2018-04-09T06:01:36.306Z,13.18
2018-04-09T06:04:03.833Z,13.36
2018-04-09T06:06:31.370Z,13.47
2018-04-09T06:08:58.922Z,13.55
2018-04-09T06:11:26.448Z,13.33
2018-04-09T06:13:54.103Z,13.59
2018-04-09T06:16:21.618Z,13.52
2018-04-09T06:18:49.133Z,13.41
2018-04-09T06:21:16.674Z,13.18
2018-04-09T06:23:44.200Z,13.68
2018-04-09T06:26:11.779Z,13.94
2018-04-09T06:28:39.310Z,14.12
2018-04-09T06:31:06.834Z,14.43
2018-04-09T06:33:34.389Z,14.49
2018-04-09T06:36:01.902Z,14.64
2018-04-09T06:38:29.626Z,14.70
2018-04-09T06:40:57.150Z,14.78
2018-04-09T06:43:24.673Z,15.01
2018-04-09T06:45:52.228Z,15.20
2018-04-09T06:48:19.762Z,15.27
2018-04-09T06:50:47.479Z,15.30
2018-04-09T06:53:15.010Z,15.65
2018-04-09T06:55:42.543Z,15.92
2018-04-09T06:58:10.120Z,16.18
2018-04-09T07:00:37.649Z,15.75
2018-04-09T07:03:05.211Z,15.50
2018-04-09T07:05:32.740Z,15.43
2018-04-09T07:08:00.418Z,15.42
2018-04-09T07:10:27.976Z,15.08
2018-04-09T07:12:55.526Z,14.69
2018-04-09T07:15:23.201Z,15.35
2018-04-09T07:17:50.732Z,15.75
2018-04-09T07:20:18.277Z,16.15
2018-04-09T07:22:45.826Z,16.59
2018-04-09T07:25:13.351Z,17.03
2018-04-09T07:27:41.024Z,17.49
2018-04-09T07:30:08.551Z,17.71
2018-04-09T07:32:36.061Z,17.84
2018-04-09T07:35:03.620Z,18.20
2018-04-09T07:37:31.205Z,17.85
2018-04-09T07:39:58.750Z,17.94
2018-04-09T07:42:26.274Z,18.22
2018-04-09T07:44:53.793Z,18.50
2018-04-09T07:47:21.325Z,18.71
2018-04-09T07:49:48.855Z,18.49
2018-04-09T07:52:16.413Z,18.62
2018-04-09T07:54:43.933Z,18.66
2018-04-09T07:57:11.450Z,18.55
2018-04-09T07:59:38.998Z,18.23
2018-04-09T08:02:06.518Z,18.54
2018-04-09T08:04:34.175Z,18.29
2018-04-09T08:07:01.709Z,18.70
2018-04-09T08:09:29.262Z,18.91
2018-04-09T08:11:56.870Z,19.50
2018-04-09T08:14:24.592Z,19.74
2018-04-09T08:16:52.595Z,20.34
2018-04-09T08:19:20.302Z,21.00
2018-04-09T08:21:48.036Z,21.80
2018-04-09T08:24:15.788Z,21.88
2018-04-09T08:26:43.353Z,22.04
2018-04-09T08:29:10.912Z,22.31
2018-04-09T08:31:38.682Z,22.67
2018-04-09T08:34:06.341Z,22.67
2018-04-09T08:36:33.959Z,22.53
2018-04-09T08:39:01.759Z,22.53
2018-04-09T08:41:29.617Z,22.51
2018-04-09T08:43:57.285Z,22.69
2018-04-09T08:46:24.906Z,22.47
2018-04-09T08:48:52.505Z,22.34
2018-04-09T08:51:20.136Z,22.62
2018-04-09T08:53:48.142Z,22.45
2018-04-09T08:56:15.714Z,22.78
2018-04-09T08:58:43.294Z,23.22
2018-04-09T09:01:11.133Z,23.21
2018-04-09T09:03:38.666Z,23.60
2018-04-09T09:06:06.653Z,24.18
2018-04-09T09:08:34.209Z,24.73
2018-04-09T09:11:01.726Z,24.85
2018-04-09T09:13:29.277Z,25.43
2018-04-09T09:15:56.806Z,26.12
2018-04-09T09:18:24.523Z,27.05
2018-04-09T09:20:52.080Z,27.21
2018-04-09T09:23:19.593Z,27.84
2018-04-09T09:25:47.291Z,27.63
2018-04-09T09:28:15.128Z,28.88
2018-04-09T09:30:42.794Z,28.55
2018-04-09T09:33:10.486Z,27.99
2018-04-09T09:35:38.329Z,28.28
2018-04-09T09:38:06.048Z,28.67
2018-04-09T09:40:33.705Z,28.77
2018-04-09T09:43:02.205Z,27.93
2018-04-09T09:45:30.002Z,27.40
2018-04-09T09:47:58.798Z,27.69
2018-04-09T09:50:26.613Z,28.06
2018-04-09T09:52:54.155Z,27.71
2018-04-09T09:55:21.709Z,28.37
2018-04-09T09:57:49.283Z,28.90
2018-04-09T10:00:16.829Z,29.22
2018-04-09T10:02:50.010Z,29.58
2018-04-09T10:05:17.916Z,30.18
2018-04-09T10:07:45.500Z,29.85
2018-04-09T10:10:13.021Z,29.30
2018-04-09T10:12:40.542Z,29.00
2018-04-09T10:15:08.094Z,28.99
2018-04-09T10:17:35.629Z,29.59
2018-04-09T10:20:03.203Z,29.90
2018-04-09T10:22:30.722Z,28.96
2018-04-09T10:24:59.407Z,28.50
2018-04-09T10:27:26.953Z,28.03
2018-04-09T10:29:58.929Z,27.63
2018-04-09T10:32:26.543Z,27.23
2018-04-09T10:34:54.575Z,27.10
2018-04-09T10:37:22.097Z,26.89
2018-04-09T10:39:49.844Z,26.74
2018-04-09T10:42:17.444Z,26.63
2018-04-09T10:44:46.270Z,26.88
2018-04-09T10:47:13.861Z,26.83
2018-04-09T10:49:42.364Z,26.04
2018-04-09T10:52:11.970Z,25.59
2018-04-09T10:54:39.706Z,25.37
2018-04-09T10:57:07.381Z,25.79
2018-04-09T10:59:35.465Z,25.78
2018-04-09T11:02:03.044Z,25.49
2018-04-09T11:04:31.565Z,25.23
2018-04-09T11:06:59.484Z,25.64
2018-04-09T11:09:27.655Z,26.07
2018-04-09T11:11:55.240Z,25.85
2018-04-09T11:14:22.981Z,26.02
2018-04-09T11:16:52.053Z,25.66
2018-04-09T11:19:20.669Z,25.90
2018-04-09T11:21:48.630Z,26.01
2018-04-09T11:24:16.177Z,26.17
2018-04-09T11:26:44.363Z,25.63
2018-04-09T11:29:13.313Z,26.23
2018-04-09T11:31:41.219Z,27.10
2018-04-09T11:34:09.381Z,29.06
2018-04-09T11:36:36.976Z,29.94
2018-04-09T11:39:05.848Z,30.33
2018-04-09T11:41:33.727Z,29.99
2018-04-09T11:44:01.552Z,30.61
2018-04-09T11:46:29.841Z,30.72
2018-04-09T11:48:57.624Z,30.38
2018-04-09T11:51:25.479Z,31.57
2018-04-09T11:53:53.355Z,31.80
2018-04-09T11:56:21.123Z,31.66
2018-04-09T11:58:48.809Z,30.94
2018-04-09T12:01:16.647Z,31.15
2018-04-09T12:03:46.153Z,31.62
2018-04-09T12:06:14.972Z,32.28
2018-04-09T12:08:42.531Z,31.87
2018-04-09T12:11:10.878Z,31.60
2018-04-09T12:13:38.615Z,31.79
2018-04-09T12:16:06.407Z,31.90
2018-04-09T12:18:34.180Z,32.31
2018-04-09T12:21:02.841Z,31.45
2018-04-09T12:23:31.914Z,30.99
2018-04-09T12:25:59.539Z,31.34
2018-04-09T12:28:27.466Z,32.18
2018-04-09T12:30:55.127Z,31.94
2018-04-09T12:33:23.012Z,31.64
2018-04-09T12:35:51.081Z,31.24
2018-04-09T12:38:18.664Z,31.20
2018-04-09T12:40:46.509Z,30.30
2018-04-09T12:43:15.271Z,30.03
2018-04-09T12:45:43.204Z,29.38
2018-04-09T12:48:10.911Z,29.56
2018-04-09T12:50:38.791Z,29.57
2018-04-09T12:53:06.444Z,29.42
2018-04-09T12:55:34.218Z,29.48
2018-04-09T12:58:01.764Z,29.42
2018-04-09T13:00:29.533Z,29.04
2018-04-09T13:02:57.396Z,29.05
2018-04-09T13:05:24.962Z,28.89
2018-04-09T13:07:54.217Z,29.00
2018-04-09T13:10:21.928Z,29.65
2018-04-09T13:12:49.689Z,30.32
2018-04-09T13:15:17.334Z,31.46
2018-04-09T13:17:44.863Z,32.37
2018-04-09T13:20:12.485Z,32.88
2018-04-09T13:22:40.357Z,32.99
2018-04-09T13:25:08.195Z,33.28
2018-04-09T13:27:35.817Z,34.68
2018-04-09T13:30:03.401Z,35.22
2018-04-09T13:32:32.155Z,34.68
2018-04-09T13:34:59.991Z,33.83
2018-04-09T13:37:28.085Z,32.24
2018-04-09T13:39:56.328Z,31.18
2018-04-09T13:42:24.189Z,30.84
2018-04-09T13:44:53.799Z,30.89
2018-04-09T13:47:22.029Z,30.58
2018-04-09T13:49:49.601Z,30.29
2018-04-09T13:52:17.386Z,30.09
2018-04-09T13:54:45.061Z,30.23
2018-04-09T13:57:13.100Z,30.64
2018-04-09T13:59:41.097Z,31.13
2018-04-09T14:02:09.999Z,31.02
2018-04-09T14:04:38.470Z,30.30
2018-04-09T14:07:06.443Z,30.17
2018-04-09T14:09:34.329Z,29.92
2018-04-09T14:12:02.270Z,30.53
2018-04-09T14:14:30.707Z,30.11
2018-04-09T14:16:58.538Z,30.47
2018-04-09T14:19:26.287Z,31.56
2018-04-09T14:21:54.232Z,33.16
2018-04-09T14:24:22.036Z,34.86
2018-04-09T14:26:50.335Z,35.65
2018-04-09T14:29:18.127Z,34.81
2018-04-09T14:31:46.131Z,33.74
2018-04-09T14:34:13.904Z,32.40
2018-04-09T14:36:41.761Z,31.53
2018-04-09T14:39:09.597Z,31.66
2018-04-09T14:41:37.437Z,31.59
2018-04-09T14:44:05.668Z,31.57
2018-04-09T14:46:33.592Z,33.03
2018-04-09T14:49:02.221Z,33.63
2018-04-09T14:51:30.292Z,33.97
2018-04-09T14:53:58.160Z,32.70
2018-04-09T14:56:26.399Z,32.40
2018-04-09T14:58:54.304Z,31.81
2018-04-09T15:01:22.374Z,30.38
2018-04-09T15:03:50.452Z,29.72
2018-04-09T15:06:20.160Z,29.45
2018-04-09T15:08:48.226Z,29.31
2018-04-09T15:11:16.094Z,29.78
2018-04-09T15:13:43.962Z,29.18
2018-04-09T15:16:11.797Z,28.38
2018-04-09T15:18:39.655Z,28.67
2018-04-09T15:21:08.399Z,28.69
2018-04-09T15:23:36.347Z,28.85
2018-04-09T15:26:05.023Z,28.71
2018-04-09T15:28:33.127Z,28.44
2018-04-09T15:31:00.876Z,28.03
2018-04-09T15:33:28.948Z,27.90
2018-04-09T15:35:56.651Z,27.68
2018-04-09T15:38:24.469Z,27.58
2018-04-09T15:40:52.206Z,27.35
2018-04-09T15:43:19.996Z,27.12
2018-04-09T15:45:48.078Z,27.14
2018-04-09T15:48:15.836Z,27.11
2018-04-09T15:50:43.802Z,26.76
2018-04-09T15:53:11.669Z,26.77
2018-04-09T15:55:39.615Z,26.47
2018-04-09T15:58:07.374Z,26.64
2018-04-09T16:00:35.125Z,26.73
2018-04-09T16:03:02.834Z,26.68
2018-04-09T16:05:30.696Z,26.52
2018-04-09T16:07:58.528Z,26.45
2018-04-09T16:10:27.720Z,26.46
2018-04-09T16:12:55.431Z,26.19
2018-04-09T16:15:23.387Z,26.10
2018-04-09T16:18:02.817Z,25.96
2018-04-09T16:20:31.207Z,25.72
2018-04-09T16:22:58.968Z,25.53
2018-04-09T16:25:26.737Z,25.28
2018-04-09T16:27:54.407Z,25.13
2018-04-09T16:30:22.236Z,24.87
2018-04-09T16:32:50.137Z,24.70
2018-04-09T16:35:17.997Z,24.46
2018-04-09T16:37:45.860Z,24.29
2018-04-09T16:40:13.833Z,24.10
2018-04-09T16:42:41.629Z,23.93
2018-04-09T16:45:09.767Z,23.86
2018-04-09T16:47:37.354Z,23.70
2018-04-09T16:50:05.294Z,23.56
2018-04-09T16:52:33.069Z,23.39
2018-04-09T16:55:00.927Z,23.21
2018-04-09T16:57:28.871Z,23.08
2018-04-09T16:59:57.167Z,22.92
2018-04-09T17:02:25.037Z,22.68
2018-04-09T17:04:53.110Z,22.56
2018-04-09T17:07:21.078Z,22.52
2018-04-09T17:09:49.148Z,22.36
2018-04-09T17:12:17.116Z,22.26
2018-04-09T17:14:44.983Z,22.26
2018-04-09T17:17:12.957Z,22.17
2018-04-09T17:19:40.820Z,21.95
2018-04-09T17:22:08.574Z,21.99
2018-04-09T17:24:36.369Z,21.94
2018-04-09T17:27:04.216Z,21.90
2018-04-09T17:29:33.000Z,21.82
2018-04-09T17:32:00.869Z,21.82
2018-04-09T17:34:28.838Z,21.67
2018-04-09T17:36:57.216Z,21.59
2018-04-09T17:39:24.983Z,21.41
2018-04-09T17:41:52.949Z,21.52
2018-04-09T17:44:20.819Z,21.53
2018-04-09T17:46:49.046Z,21.35
2018-04-09T17:49:16.912Z,21.19
2018-04-09T17:51:44.639Z,21.24
2018-04-09T17:54:12.589Z,21.27
2018-04-09T17:56:40.456Z,21.23
2018-04-09T17:59:08.646Z,20.96
2018-04-09T18:01:36.600Z,21.03
2018-04-09T18:04:04.415Z,20.95
2018-04-09T18:06:32.308Z,20.90
2018-04-09T18:09:00.199Z,20.66
2018-04-09T18:11:28.090Z,20.60
2018-04-09T18:13:56.345Z,20.67
2018-04-09T18:16:24.208Z,20.64
2018-04-09T18:18:51.985Z,20.56
2018-04-09T18:21:19.838Z,20.56
2018-04-09T18:23:48.015Z,20.55
2018-04-09T18:26:18.332Z,20.44
2018-04-09T18:28:47.227Z,20.26
2018-04-09T18:31:16.022Z,20.31
2018-04-09T18:33:45.885Z,20.22
2018-04-09T18:36:14.027Z,20.01
2018-04-09T18:38:42.875Z,19.93
2018-04-09T18:41:14.615Z,20.07
2018-04-09T18:43:43.885Z,20.11
2018-04-09T18:46:12.127Z,19.96
2018-04-09T18:48:40.092Z,19.97
2018-04-09T18:51:08.163Z,19.93
2018-04-09T18:53:36.107Z,19.90
2018-04-09T18:56:04.777Z,19.87
2018-04-09T18:58:32.866Z,19.73
2018-04-09T19:01:01.472Z,19.83
2018-04-09T19:03:29.338Z,19.81
2018-04-09T19:05:57.821Z,19.75
2018-04-09T19:08:25.790Z,19.69
2018-04-09T19:10:53.898Z,19.48
2018-04-09T19:13:21.832Z,19.57
2018-04-09T19:15:49.798Z,19.62
2018-04-09T19:18:18.140Z,19.50
2018-04-09T19:20:46.021Z,19.57
2018-04-09T19:23:14.836Z,19.38
2018-04-09T19:25:42.854Z,19.43
2018-04-09T19:28:11.750Z,19.36
2018-04-09T19:30:41.815Z,19.33
2018-04-09T19:33:10.189Z,19.36
2018-04-09T19:35:43.913Z,19.20
2018-04-09T19:38:17.186Z,19.36
2018-04-09T19:40:47.818Z,19.29
2018-04-09T19:43:15.892Z,19.22
2018-04-09T19:45:44.883Z,19.30
2018-04-09T19:48:12.856Z,19.29
2018-04-09T19:50:41.029Z,19.29
2018-04-09T19:53:09.723Z,19.20
2018-04-09T19:55:38.011Z,19.19
2018-04-09T19:58:05.940Z,19.25
2018-04-09T20:00:34.331Z,19.22
2018-04-09T20:03:03.250Z,19.14
2018-04-09T20:05:31.399Z,19.08
2018-04-09T20:07:59.777Z,19.04
2018-04-09T20:10:27.748Z,18.99
2018-04-09T20:12:55.720Z,18.95
2018-04-09T20:15:23.992Z,18.94
2018-04-09T20:17:51.962Z,18.87
2018-04-09T20:20:20.207Z,18.80
2018-04-09T20:22:49.025Z,18.65
2018-04-09T20:25:17.096Z,18.54
2018-04-09T20:27:45.005Z,18.56
2018-04-09T20:30:12.727Z,18.55
2018-04-09T20:32:40.918Z,18.49
2018-04-09T20:35:09.988Z,18.39
2018-04-09T20:37:37.862Z,18.42
2018-04-09T20:40:05.831Z,18.38
2018-04-09T20:42:33.699Z,18.30
2018-04-09T20:45:01.566Z,18.23
2018-04-09T20:47:29.744Z,18.15
2018-04-09T20:49:57.709Z,18.06
2018-04-09T20:52:25.348Z,18.01
2018-04-09T20:54:53.441Z,18.04
2018-04-09T20:57:21.219Z,18.02
2018-04-09T20:59:48.972Z,18.01
2018-04-09T21:02:16.799Z,18.02
2018-04-09T21:04:44.518Z,18.02
2018-04-09T21:07:12.258Z,18.06
2018-04-09T21:09:40.128Z,18.07
2018-04-09T21:12:07.876Z,18.05
2018-04-09T21:14:35.606Z,18.07
2018-04-09T21:17:03.527Z,17.97
2018-04-09T21:19:31.398Z,18.05
2018-04-09T21:21:59.103Z,18.04
2018-04-09T21:24:27.094Z,18.03
2018-04-09T21:26:55.044Z,18.00
2018-04-09T21:29:22.586Z,17.92
2018-04-09T21:31:50.443Z,17.88
2018-04-09T21:34:18.703Z,17.89
2018-04-09T21:36:46.353Z,17.80
2018-04-09T21:39:14.731Z,17.79
2018-04-09T21:41:42.447Z,17.84
2018-04-09T21:44:09.994Z,17.85
2018-04-09T21:46:37.719Z,17.74
2018-04-09T21:49:05.276Z,17.71
2018-04-09T21:51:32.832Z,17.69
2018-04-09T21:54:01.195Z,17.69
2018-04-09T21:56:28.875Z,17.71
2018-04-09T21:58:56.552Z,17.68
2018-04-09T22:01:24.281Z,17.68
2018-04-09T22:03:51.818Z,17.66
2018-04-09T22:06:19.362Z,17.56
2018-04-09T22:08:46.977Z,17.59
2018-04-09T22:11:15.768Z,17.61
2018-04-09T22:13:43.287Z,17.66
2018-04-09T22:16:11.134Z,17.42
2018-04-09T22:18:38.810Z,17.49
2018-04-09T22:21:06.329Z,17.52
2018-04-09T22:23:34.023Z,17.51
2018-04-09T22:26:01.544Z,17.38
2018-04-09T22:28:29.092Z,17.49
2018-04-09T22:30:56.787Z,17.35
2018-04-09T22:33:24.319Z,17.53
2018-04-09T22:35:51.835Z,17.44
2018-04-09T22:38:19.588Z,17.33
2018-04-09T22:40:47.111Z,17.42
2018-04-09T22:43:14.644Z,17.41
2018-04-09T22:45:42.183Z,17.35
2018-04-09T22:48:09.708Z,17.34
2018-04-09T22:50:37.231Z,17.31
2018-04-09T22:53:04.969Z,17.37
2018-04-09T22:55:33.411Z,17.28
2018-04-09T22:58:00.944Z,17.34
2018-04-09T23:00:28.495Z,17.19
2018-04-09T23:02:56.024Z,17.27
2018-04-09T23:05:23.568Z,17.21
2018-04-09T23:07:52.070Z,17.15
2018-04-09T23:10:19.763Z,17.25
2018-04-09T23:12:47.492Z,17.12
2018-04-09T23:15:15.055Z,17.16
2018-04-09T23:17:42.587Z,17.19
2018-04-09T23:20:10.111Z,17.04
2018-04-09T23:22:37.836Z,17.14
2018-04-09T23:25:05.357Z,17.12
2018-04-09T23:27:32.870Z,16.98
2018-04-09T23:30:00.507Z,17.06
2018-04-09T23:32:28.027Z,17.07
2018-04-09T23:34:55.550Z,17.05
2018-04-09T23:37:23.291Z,17.01
2018-04-09T23:39:50.800Z,16.91
2018-04-09T23:42:18.317Z,16.99
2018-04-09T23:44:46.750Z,16.93
2018-04-09T23:47:14.267Z,16.84
2018-04-09T23:49:41.781Z,16.93
2018-04-09T23:52:09.329Z,16.91
2018-04-09T23:54:36.851Z,16.87
2018-04-09T23:57:04.361Z,16.85
2018-04-09T23:59:32.056Z,16.82
